BAW2KF OEMA-EGLL
Flight info
| Callsign | BAW2KF |
|---|---|
| Flight time | N/A |
| Altitude | 38000 |
| Route | MIXUG Q46 GAS L604 WEJ L677 CVO L617 TANSA UL613 KOR DCT DIMIS DCT RODON DCT VAKSU DCT SPL DCT PEVAL DCT SUXAN DCT HOC DCT EPAGO DCT RODIN DCT ABNUR UT10 ALESO |
| Aircraft | A35K/H-SDE2E3GHIJ3J4J5LM1ORWXY/LB1D1 |
Departure
| Time | 2026-04-25 16:21 |
|---|---|
| Airport | Prince Mohammad Bin Abdulaziz Airport (OEMA) |
Arrival
| Time | N/A |
|---|---|
| Airport | London Heathrow Airport (EGLL) |
| Time | Latitude | Longitude | Altitude | Speed | Heading |
|---|---|---|---|---|---|
| 2026-04-25 16:13 | 24.56162 | 39.71036 | 2123 ft | 0 kts | 169° |
| 2026-04-25 16:16 | 24.56156 | 39.71037 | 2123 ft | 2 kts | 169° |
| 2026-04-25 16:16 | 24.56138 | 39.71041 | 2120 ft | 4 kts | 169° |
| 2026-04-25 16:16 | 24.56104 | 39.71048 | 2117 ft | 9 kts | 169° |
| 2026-04-25 16:16 | 24.56008 | 39.71069 | 2115 ft | 19 kts | 169° |
| 2026-04-25 16:17 | 24.55846 | 39.71103 | 2111 ft | 28 kts | 169° |
| 2026-04-25 16:17 | 24.55626 | 39.71150 | 2106 ft | 36 kts | 169° |
| 2026-04-25 16:17 | 24.55357 | 39.71208 | 2101 ft | 43 kts | 169° |
| 2026-04-25 16:17 | 24.55061 | 39.71270 | 2095 ft | 42 kts | 169° |
| 2026-04-25 16:18 | 24.54879 | 39.71286 | 2091 ft | 21 kts | 219° |
| 2026-04-25 16:18 | 24.54855 | 39.71239 | 2090 ft | 23 kts | 250° |
| 2026-04-25 16:18 | 24.54608 | 39.71169 | 2085 ft | 31 kts | 169° |
| 2026-04-25 16:18 | 24.54369 | 39.71220 | 2079 ft | 39 kts | 169° |
| 2026-04-25 16:19 | 24.54083 | 39.71280 | 2073 ft | 44 kts | 169° |
| 2026-04-25 16:19 | 24.53879 | 39.71314 | 2073 ft | 21 kts | 192° |
| 2026-04-25 16:19 | 24.53832 | 39.71162 | 2072 ft | 25 kts | 301° |
| 2026-04-25 16:20 | 24.54005 | 39.71105 | 2070 ft | 0 kts | 349° |
| 2026-04-25 16:20 | 24.54106 | 39.71084 | 2072 ft | 39 kts | 349° |
| 2026-04-25 16:20 | 24.55290 | 39.70835 | 2096 ft | 130 kts | 349° |
| 2026-04-25 16:21 | 24.56307 | 39.70617 | 2121 ft | 166 kts | 349° |
| 2026-04-25 16:21 | 24.57550 | 39.70360 | 2207 ft | 192 kts | 345° |
| 2026-04-25 16:21 | 24.58880 | 39.70050 | 2563 ft | 193 kts | 343° |
| 2026-04-25 16:21 | 24.60182 | 39.69756 | 3087 ft | 192 kts | 344° |
| 2026-04-25 16:22 | 24.61517 | 39.69480 | 3373 ft | 196 kts | 344° |
| 2026-04-25 16:22 | 24.62845 | 39.69212 | 3734 ft | 192 kts | 345° |
| 2026-04-25 16:22 | 24.64170 | 39.68930 | 4037 ft | 198 kts | 344° |
| 2026-04-25 16:22 | 24.65556 | 39.68618 | 4214 ft | 210 kts | 343° |
| 2026-04-25 16:23 | 24.67050 | 39.68262 | 4338 ft | 227 kts | 343° |
| 2026-04-25 16:23 | 24.68597 | 39.67796 | 4471 ft | 238 kts | 332° |
| 2026-04-25 16:23 | 24.69982 | 39.66775 | 4548 ft | 246 kts | 310° |
| 2026-04-25 16:23 | 24.71096 | 39.65289 | 4732 ft | 257 kts | 302° |
| 2026-04-25 16:24 | 24.72050 | 39.63600 | 5058 ft | 265 kts | 297° |
| 2026-04-25 16:24 | 24.73063 | 39.61885 | 5500 ft | 269 kts | 301° |
| 2026-04-25 16:24 | 24.74133 | 39.60177 | 5915 ft | 273 kts | 301° |
| 2026-04-25 16:24 | 24.75217 | 39.58438 | 6364 ft | 277 kts | 302° |
| 2026-04-25 16:25 | 24.76305 | 39.56680 | 6861 ft | 278 kts | 301° |
| 2026-04-25 16:25 | 24.77022 | 39.55513 | 7149 ft | 280 kts | 301° |
| 2026-04-25 16:25 | 24.78473 | 39.53157 | 7812 ft | 280 kts | 301° |
| 2026-04-25 16:25 | 24.79578 | 39.51375 | 8281 ft | 282 kts | 301° |
| 2026-04-25 16:26 | 24.80691 | 39.49582 | 8765 ft | 284 kts | 301° |
| 2026-04-25 16:26 | 24.81809 | 39.47781 | 9246 ft | 285 kts | 300° |
| 2026-04-25 16:26 | 24.82930 | 39.45976 | 9769 ft | 286 kts | 300° |
| 2026-04-25 16:26 | 24.84061 | 39.44153 | 10144 ft | 291 kts | 300° |
| 2026-04-25 16:27 | 24.85213 | 39.42293 | 10276 ft | 304 kts | 300° |
| 2026-04-25 16:27 | 24.86428 | 39.40322 | 10429 ft | 317 kts | 300° |
| 2026-04-25 16:27 | 24.87692 | 39.38270 | 10562 ft | 329 kts | 300° |
| 2026-04-25 16:27 | 24.89002 | 39.36148 | 10752 ft | 341 kts | 300° |
| 2026-04-25 16:28 | 24.90360 | 39.33956 | 10921 ft | 352 kts | 301° |
| 2026-04-25 16:28 | 24.91763 | 39.31695 | 11109 ft | 363 kts | 301° |
| 2026-04-25 16:28 | 24.93208 | 39.29367 | 11269 ft | 373 kts | 301° |
| 2026-04-25 16:28 | 24.94698 | 39.26970 | 11445 ft | 383 kts | 301° |
| 2026-04-25 16:29 | 24.96218 | 39.24520 | 11725 ft | 390 kts | 301° |
| 2026-04-25 16:29 | 24.97757 | 39.22046 | 12054 ft | 392 kts | 301° |
| 2026-04-25 16:29 | 24.99285 | 39.19583 | 12424 ft | 395 kts | 300° |
| 2026-04-25 16:29 | 25.00841 | 39.17067 | 12805 ft | 398 kts | 300° |
| 2026-04-25 16:30 | 25.02405 | 39.14534 | 13212 ft | 400 kts | 300° |
| 2026-04-25 16:30 | 25.03975 | 39.11990 | 13608 ft | 401 kts | 300° |
| 2026-04-25 16:30 | 25.05551 | 39.09434 | 13906 ft | 405 kts | 300° |
| 2026-04-25 16:30 | 25.07142 | 39.06851 | 14237 ft | 408 kts | 299° |
| 2026-04-25 16:31 | 25.08745 | 39.04250 | 14630 ft | 409 kts | 299° |
| 2026-04-25 16:31 | 25.10351 | 39.01644 | 15014 ft | 410 kts | 299° |
| 2026-04-25 16:31 | 25.11938 | 38.99068 | 15372 ft | 412 kts | 298° |
| 2026-04-25 16:31 | 25.13555 | 38.96446 | 15671 ft | 414 kts | 298° |
| 2026-04-25 16:32 | 25.15175 | 38.93810 | 16035 ft | 415 kts | 298° |
| 2026-04-25 16:32 | 25.16795 | 38.91169 | 16376 ft | 416 kts | 298° |
| 2026-04-25 16:32 | 25.18418 | 38.88520 | 16711 ft | 417 kts | 298° |
| 2026-04-25 16:32 | 25.20068 | 38.85861 | 17134 ft | 422 kts | 298° |
| 2026-04-25 16:33 | 25.21721 | 38.83181 | 17565 ft | 421 kts | 297° |
| 2026-04-25 16:33 | 25.23368 | 38.80496 | 17925 ft | 423 kts | 297° |
| 2026-04-25 16:33 | 25.25000 | 38.77821 | 18218 ft | 425 kts | 297° |
| 2026-04-25 16:33 | 25.26658 | 38.75103 | 18529 ft | 427 kts | 297° |
| 2026-04-25 16:34 | 25.28319 | 38.72380 | 18846 ft | 428 kts | 297° |
| 2026-04-25 16:34 | 25.29989 | 38.69646 | 19167 ft | 429 kts | 297° |
| 2026-04-25 16:34 | 25.31660 | 38.66910 | 19476 ft | 430 kts | 297° |
| 2026-04-25 16:34 | 25.33337 | 38.64166 | 19783 ft | 431 kts | 297° |
| 2026-04-25 16:35 | 25.35019 | 38.61413 | 20124 ft | 431 kts | 297° |
| 2026-04-25 16:35 | 25.36701 | 38.58659 | 20414 ft | 433 kts | 297° |
| 2026-04-25 16:35 | 25.38390 | 38.55890 | 20731 ft | 435 kts | 297° |
| 2026-04-25 16:35 | 25.40081 | 38.53103 | 21057 ft | 436 kts | 297° |
| 2026-04-25 16:36 | 25.41757 | 38.50350 | 21404 ft | 437 kts | 297° |
| 2026-04-25 16:36 | 25.42330 | 38.49410 | 21496 ft | 438 kts | 297° |
| 2026-04-25 16:36 | 25.45175 | 38.44742 | 22005 ft | 440 kts | 297° |
| 2026-04-25 16:36 | 25.46890 | 38.41925 | 22343 ft | 441 kts | 298° |
| 2026-04-25 16:37 | 25.48609 | 38.39100 | 22658 ft | 443 kts | 298° |
| 2026-04-25 16:37 | 25.50330 | 38.36267 | 22950 ft | 445 kts | 298° |
| 2026-04-25 16:37 | 25.52060 | 38.33419 | 23258 ft | 446 kts | 298° |
| 2026-04-25 16:37 | 25.53793 | 38.30563 | 23559 ft | 447 kts | 298° |
| 2026-04-25 16:38 | 25.55502 | 38.27745 | 23846 ft | 447 kts | 298° |
| 2026-04-25 16:38 | 25.57238 | 38.24882 | 24181 ft | 446 kts | 298° |
| 2026-04-25 16:38 | 25.58967 | 38.22030 | 24493 ft | 446 kts | 298° |
| 2026-04-25 16:38 | 25.60695 | 38.19177 | 24772 ft | 446 kts | 298° |
| 2026-04-25 16:39 | 25.62431 | 38.16306 | 25023 ft | 448 kts | 298° |
| 2026-04-25 16:39 | 25.64166 | 38.13435 | 25299 ft | 449 kts | 298° |
| 2026-04-25 16:39 | 25.65904 | 38.10557 | 25604 ft | 448 kts | 298° |
| 2026-04-25 16:39 | 25.67637 | 38.07686 | 25908 ft | 448 kts | 298° |
| 2026-04-25 16:40 | 25.69370 | 38.04814 | 26192 ft | 448 kts | 298° |
| 2026-04-25 16:40 | 25.71102 | 38.01943 | 26430 ft | 451 kts | 298° |
| 2026-04-25 16:40 | 25.72848 | 37.99041 | 26723 ft | 452 kts | 298° |
| 2026-04-25 16:40 | 25.74585 | 37.96153 | 27154 ft | 449 kts | 298° |
| 2026-04-25 16:41 | 25.76322 | 37.93270 | 27477 ft | 449 kts | 298° |
| 2026-04-25 16:41 | 25.76883 | 37.92337 | 27555 ft | 449 kts | 298° |
| 2026-04-25 16:41 | 25.81511 | 37.84640 | 28248 ft | 450 kts | 298° |
| 2026-04-25 16:42 | 25.83250 | 37.81745 | 28441 ft | 451 kts | 298° |
| 2026-04-25 16:42 | 25.84990 | 37.78847 | 28684 ft | 451 kts | 297° |
| 2026-04-25 16:42 | 25.86728 | 37.75950 | 29068 ft | 448 kts | 298° |
| 2026-04-25 16:42 | 25.88452 | 37.73078 | 29482 ft | 446 kts | 297° |
| 2026-04-25 16:43 | 25.90168 | 37.70214 | 29858 ft | 444 kts | 297° |
| 2026-04-25 16:43 | 25.91873 | 37.67367 | 30240 ft | 440 kts | 297° |
| 2026-04-25 16:43 | 25.93565 | 37.64542 | 30556 ft | 437 kts | 297° |
| 2026-04-25 16:43 | 25.95244 | 37.61732 | 30802 ft | 436 kts | 297° |
| 2026-04-25 16:44 | 25.96920 | 37.58924 | 30957 ft | 435 kts | 297° |
| 2026-04-25 16:44 | 25.98569 | 37.56157 | 31208 ft | 434 kts | 297° |
| 2026-04-25 16:44 | 26.00234 | 37.53365 | 31503 ft | 432 kts | 296° |
| 2026-04-25 16:44 | 26.01892 | 37.50591 | 31785 ft | 429 kts | 296° |
| 2026-04-25 16:45 | 26.03539 | 37.47830 | 32017 ft | 428 kts | 296° |
| 2026-04-25 16:45 | 26.05182 | 37.45073 | 32268 ft | 426 kts | 296° |
| 2026-04-25 16:45 | 26.06818 | 37.42323 | 32469 ft | 425 kts | 296° |
| 2026-04-25 16:45 | 26.08448 | 37.39580 | 32679 ft | 424 kts | 296° |
| 2026-04-25 16:46 | 26.10071 | 37.36847 | 32861 ft | 423 kts | 296° |
| 2026-04-25 16:46 | 26.11672 | 37.34154 | 33038 ft | 422 kts | 296° |
| 2026-04-25 16:46 | 26.13289 | 37.31431 | 33176 ft | 420 kts | 295° |
| 2026-04-25 16:46 | 26.13834 | 37.30513 | 33224 ft | 420 kts | 295° |
| 2026-04-25 16:47 | 26.16507 | 37.26001 | 33470 ft | 419 kts | 296° |
| 2026-04-25 16:47 | 26.18107 | 37.23298 | 33669 ft | 418 kts | 295° |
| 2026-04-25 16:47 | 26.19704 | 37.20605 | 33865 ft | 416 kts | 295° |
| 2026-04-25 16:47 | 26.21300 | 37.17911 | 33995 ft | 415 kts | 295° |
| 2026-04-25 16:48 | 26.24483 | 37.12530 | 34123 ft | 415 kts | 295° |
| 2026-04-25 16:48 | 26.27657 | 37.07156 | 34278 ft | 415 kts | 295° |
| 2026-04-25 16:49 | 26.30831 | 37.01780 | 34423 ft | 415 kts | 295° |
| 2026-04-25 16:49 | 26.32417 | 36.99092 | 34530 ft | 415 kts | 295° |
| 2026-04-25 16:49 | 26.33981 | 36.96439 | 34628 ft | 414 kts | 295° |
| 2026-04-25 16:50 | 26.37142 | 36.91071 | 34770 ft | 414 kts | 295° |
| 2026-04-25 16:50 | 26.40294 | 36.85711 | 34917 ft | 413 kts | 295° |
| 2026-04-25 16:51 | 26.43441 | 36.80353 | 35038 ft | 412 kts | 295° |
| 2026-04-25 16:51 | 26.45524 | 36.76802 | 35116 ft | 412 kts | 295° |
| 2026-04-25 16:52 | 26.48136 | 36.72350 | 35284 ft | 410 kts | 295° |
| 2026-04-25 16:52 | 26.49697 | 36.69688 | 35385 ft | 409 kts | 295° |
| 2026-04-25 16:52 | 26.52814 | 36.64363 | 35442 ft | 410 kts | 295° |
| 2026-04-25 16:53 | 26.57483 | 36.56371 | 35569 ft | 409 kts | 295° |
| 2026-04-25 16:54 | 26.60572 | 36.51079 | 35656 ft | 409 kts | 295° |
| 2026-04-25 16:54 | 26.63674 | 36.45758 | 35754 ft | 408 kts | 295° |
| 2026-04-25 16:55 | 26.66776 | 36.40431 | 35824 ft | 408 kts | 295° |
| 2026-04-25 16:55 | 26.69872 | 36.35107 | 35885 ft | 408 kts | 295° |
| 2026-04-25 16:56 | 26.72942 | 36.29823 | 35928 ft | 408 kts | 295° |
| 2026-04-25 16:56 | 26.75502 | 36.25413 | 35995 ft | 407 kts | 295° |
| 2026-04-25 16:56 | 26.77561 | 36.21861 | 36613 ft | 417 kts | 303° |
| 2026-04-25 16:57 | 26.79154 | 36.19113 | 36266 ft | 425 kts | 303° |
| 2026-04-25 16:57 | 26.82383 | 36.13538 | 36101 ft | 428 kts | 296° |
| 2026-04-25 16:57 | 26.84000 | 36.10732 | 35994 ft | 429 kts | 296° |
| 2026-04-25 16:58 | 26.85619 | 36.07925 | 36001 ft | 428 kts | 296° |
| 2026-04-25 16:58 | 26.88299 | 36.03287 | 36008 ft | 424 kts | 299° |
| 2026-04-25 16:59 | 26.91474 | 35.97793 | 36003 ft | 415 kts | 298° |
| 2026-04-25 16:59 | 26.94604 | 35.92356 | 35463 ft | 425 kts | 298° |
| 2026-04-25 16:59 | 26.96233 | 35.89491 | 34659 ft | 447 kts | 298° |
| 2026-04-25 17:00 | 26.97939 | 35.86482 | 33865 ft | 471 kts | 293° |
| 2026-04-25 17:00 | 26.99765 | 35.83306 | 32943 ft | 498 kts | 292° |
| 2026-04-25 17:00 | 27.01660 | 35.79930 | 32080 ft | 524 kts | 292° |
| 2026-04-25 17:00 | 27.03632 | 35.76377 | 31400 ft | 547 kts | 293° |
| 2026-04-25 17:01 | 27.05717 | 35.72732 | 31053 ft | 561 kts | 294° |
| 2026-04-25 17:01 | 27.10021 | 35.65361 | 30992 ft | 564 kts | 294° |
| 2026-04-25 17:02 | 27.14299 | 35.58000 | 31001 ft | 562 kts | 294° |
| 2026-04-25 17:02 | 27.18502 | 35.50669 | 30999 ft | 561 kts | 294° |
| 2026-04-25 17:03 | 27.22712 | 35.43277 | 31000 ft | 561 kts | 294° |
| 2026-04-25 17:03 | 27.26919 | 35.35874 | 31000 ft | 561 kts | 294° |
| 2026-04-25 17:04 | 27.31124 | 35.28465 | 31027 ft | 563 kts | 294° |
| 2026-04-25 17:04 | 27.33230 | 35.24749 | 31235 ft | 564 kts | 294° |
| 2026-04-25 17:04 | 27.35342 | 35.21024 | 31492 ft | 563 kts | 294° |
| 2026-04-25 17:04 | 27.37453 | 35.17295 | 31670 ft | 564 kts | 294° |
| 2026-04-25 17:05 | 27.39560 | 35.13572 | 31864 ft | 565 kts | 294° |
| 2026-04-25 17:05 | 27.43787 | 35.06089 | 32214 ft | 567 kts | 294° |
| 2026-04-25 17:05 | 27.45878 | 35.02385 | 32370 ft | 568 kts | 294° |
| 2026-04-25 17:06 | 27.48000 | 34.98620 | 32527 ft | 568 kts | 294° |
| 2026-04-25 17:06 | 27.50172 | 34.94884 | 32670 ft | 574 kts | 298° |
| 2026-04-25 17:06 | 27.52774 | 34.91410 | 32796 ft | 585 kts | 307° |
| 2026-04-25 17:06 | 27.55633 | 34.88142 | 32955 ft | 587 kts | 309° |
| 2026-04-25 17:07 | 27.58580 | 34.84943 | 33108 ft | 589 kts | 311° |
| 2026-04-25 17:07 | 27.61583 | 34.81778 | 33251 ft | 590 kts | 311° |
| 2026-04-25 17:07 | 27.64599 | 34.78637 | 33394 ft | 591 kts | 312° |
| 2026-04-25 17:07 | 27.67621 | 34.75492 | 33547 ft | 591 kts | 312° |
| 2026-04-25 17:08 | 27.70642 | 34.72333 | 33686 ft | 592 kts | 312° |
| 2026-04-25 17:08 | 27.73656 | 34.69164 | 33808 ft | 592 kts | 311° |
| 2026-04-25 17:08 | 27.76665 | 34.65984 | 33932 ft | 593 kts | 311° |
| 2026-04-25 17:08 | 27.79633 | 34.62836 | 34055 ft | 593 kts | 311° |
| 2026-04-25 17:09 | 27.82645 | 34.59634 | 34172 ft | 593 kts | 311° |
| 2026-04-25 17:09 | 27.85647 | 34.56439 | 34286 ft | 594 kts | 311° |
| 2026-04-25 17:09 | 27.88654 | 34.53237 | 34401 ft | 594 kts | 311° |
| 2026-04-25 17:09 | 27.91666 | 34.50028 | 34506 ft | 595 kts | 312° |
| 2026-04-25 17:10 | 27.94683 | 34.46811 | 34615 ft | 595 kts | 312° |
| 2026-04-25 17:10 | 27.97697 | 34.43596 | 34709 ft | 595 kts | 311° |
| 2026-04-25 17:10 | 28.03202 | 34.36675 | 34956 ft | 588 kts | 304° |
| 2026-04-25 17:11 | 28.05817 | 34.33132 | 35151 ft | 586 kts | 303° |
| 2026-04-25 17:11 | 28.08370 | 34.29611 | 35323 ft | 583 kts | 302° |
| 2026-04-25 17:11 | 28.10927 | 34.26053 | 35474 ft | 582 kts | 302° |
| 2026-04-25 17:11 | 28.13486 | 34.22478 | 35487 ft | 584 kts | 302° |
| 2026-04-25 17:12 | 28.16045 | 34.18904 | 35607 ft | 584 kts | 302° |
| 2026-04-25 17:12 | 28.18604 | 34.15336 | 35793 ft | 582 kts | 302° |
| 2026-04-25 17:12 | 28.21155 | 34.11788 | 36029 ft | 578 kts | 302° |
| 2026-04-25 17:12 | 28.23684 | 34.08281 | 36418 ft | 571 kts | 302° |
| 2026-04-25 17:13 | 28.26152 | 34.04858 | 36718 ft | 566 kts | 302° |
| 2026-04-25 17:13 | 28.27839 | 34.02511 | 36689 ft | 567 kts | 301° |
| 2026-04-25 17:13 | 28.31155 | 33.97879 | 36377 ft | 574 kts | 302° |
| 2026-04-25 17:13 | 28.33685 | 33.94344 | 36230 ft | 578 kts | 301° |
| 2026-04-25 17:14 | 28.36209 | 33.90825 | 36700 ft | 568 kts | 301° |
| 2026-04-25 17:14 | 28.38698 | 33.87354 | 36900 ft | 566 kts | 301° |
| 2026-04-25 17:14 | 28.43671 | 33.80394 | 36882 ft | 568 kts | 301° |
| 2026-04-25 17:15 | 28.48636 | 33.73427 | 36719 ft | 573 kts | 302° |
| 2026-04-25 17:15 | 28.53659 | 33.66378 | 36738 ft | 574 kts | 302° |
| 2026-04-25 17:16 | 28.58692 | 33.59324 | 36795 ft | 573 kts | 302° |
| 2026-04-25 17:16 | 28.63716 | 33.52243 | 36738 ft | 577 kts | 302° |
| 2026-04-25 17:17 | 28.68767 | 33.45112 | 36751 ft | 579 kts | 302° |
| 2026-04-25 17:17 | 28.73829 | 33.37964 | 36791 ft | 580 kts | 303° |
| 2026-04-25 17:18 | 28.78863 | 33.30841 | 36792 ft | 581 kts | 303° |
| 2026-04-25 17:18 | 28.83935 | 33.23653 | 36838 ft | 582 kts | 303° |
| 2026-04-25 17:19 | 28.89030 | 33.16415 | 36794 ft | 585 kts | 303° |
| 2026-04-25 17:19 | 28.94131 | 33.09161 | 36803 ft | 586 kts | 303° |
| 2026-04-25 17:20 | 28.99235 | 33.01891 | 36834 ft | 587 kts | 303° |
| 2026-04-25 17:20 | 29.04315 | 32.94641 | 36848 ft | 588 kts | 303° |
| 2026-04-25 17:21 | 29.09427 | 32.87332 | 36873 ft | 589 kts | 303° |
| 2026-04-25 17:21 | 29.14545 | 32.80001 | 36882 ft | 590 kts | 303° |
| 2026-04-25 17:22 | 29.18806 | 32.73889 | 36895 ft | 591 kts | 303° |
| 2026-04-25 17:22 | 29.24799 | 32.65274 | 36929 ft | 592 kts | 303° |
| 2026-04-25 17:23 | 29.29940 | 32.57872 | 36849 ft | 596 kts | 303° |
| 2026-04-25 17:23 | 29.35075 | 32.50410 | 36933 ft | 595 kts | 302° |
| 2026-04-25 17:24 | 29.40178 | 32.42953 | 37002 ft | 594 kts | 302° |
| 2026-04-25 17:24 | 29.45266 | 32.35507 | 37000 ft | 591 kts | 301° |
| 2026-04-25 17:25 | 29.50305 | 32.28129 | 36999 ft | 589 kts | 301° |
| 2026-04-25 17:25 | 29.55346 | 32.20731 | 37003 ft | 586 kts | 301° |
| 2026-04-25 17:26 | 29.60364 | 32.13337 | 37001 ft | 587 kts | 302° |
| 2026-04-25 17:26 | 29.65408 | 32.05924 | 37001 ft | 589 kts | 302° |
| 2026-04-25 17:27 | 29.70462 | 31.98485 | 36999 ft | 591 kts | 302° |
| 2026-04-25 17:27 | 29.73814 | 31.93538 | 37000 ft | 592 kts | 302° |
| 2026-04-25 17:28 | 29.80553 | 31.83544 | 37002 ft | 593 kts | 301° |
| 2026-04-25 17:28 | 29.85481 | 31.75930 | 37000 ft | 592 kts | 300° |
| 2026-04-25 17:29 | 29.90359 | 31.68286 | 36997 ft | 591 kts | 300° |
| 2026-04-25 17:29 | 29.95243 | 31.60659 | 36998 ft | 591 kts | 300° |
| 2026-04-25 17:30 | 30.00140 | 31.53035 | 37000 ft | 591 kts | 300° |
| 2026-04-25 17:30 | 30.05044 | 31.45395 | 37000 ft | 592 kts | 300° |
| 2026-04-25 17:31 | 30.10242 | 31.37964 | 37006 ft | 600 kts | 311° |
| 2026-04-25 17:31 | 30.16237 | 31.31218 | 37000 ft | 603 kts | 314° |
| 2026-04-25 17:32 | 30.22376 | 31.24649 | 36997 ft | 605 kts | 314° |
| 2026-04-25 17:32 | 30.28585 | 31.18044 | 37000 ft | 606 kts | 314° |
| 2026-04-25 17:33 | 30.34764 | 31.11415 | 37000 ft | 606 kts | 314° |
| 2026-04-25 17:33 | 30.40931 | 31.04755 | 37000 ft | 605 kts | 314° |
| 2026-04-25 17:34 | 30.47082 | 30.98093 | 37000 ft | 605 kts | 314° |
| 2026-04-25 17:34 | 30.53242 | 30.91411 | 37000 ft | 605 kts | 314° |
| 2026-04-25 17:35 | 30.59352 | 30.84774 | 37000 ft | 605 kts | 314° |
| 2026-04-25 17:35 | 30.65499 | 30.78086 | 37000 ft | 605 kts | 314° |
| 2026-04-25 17:36 | 30.71641 | 30.71392 | 37000 ft | 605 kts | 314° |
| 2026-04-25 17:36 | 30.77787 | 30.64680 | 37000 ft | 605 kts | 314° |
| 2026-04-25 17:37 | 30.83925 | 30.57965 | 37000 ft | 605 kts | 314° |
| 2026-04-25 17:37 | 30.90060 | 30.51240 | 37000 ft | 605 kts | 313° |
| 2026-04-25 17:38 | 30.94121 | 30.46782 | 37000 ft | 605 kts | 313° |
| 2026-04-25 17:38 | 31.02319 | 30.37766 | 37000 ft | 605 kts | 313° |
| 2026-04-25 17:39 | 31.07962 | 30.30657 | 37000 ft | 594 kts | 297° |
| 2026-04-25 17:39 | 31.09975 | 30.26516 | 37000 ft | 579 kts | 284° |
| 2026-04-25 17:39 | 31.11449 | 30.22181 | 37000 ft | 573 kts | 280° |
| 2026-04-25 17:40 | 31.13957 | 30.13367 | 37002 ft | 570 kts | 277° |
| 2026-04-25 17:40 | 31.16271 | 30.04520 | 36997 ft | 570 kts | 277° |
| 2026-04-25 17:41 | 31.18909 | 29.95728 | 36999 ft | 584 kts | 289° |
| 2026-04-25 17:41 | 31.23285 | 29.87609 | 37000 ft | 595 kts | 299° |
| 2026-04-25 17:42 | 31.28134 | 29.79820 | 36999 ft | 597 kts | 301° |
| 2026-04-25 17:42 | 31.33103 | 29.72026 | 37000 ft | 598 kts | 301° |
| 2026-04-25 17:43 | 31.38031 | 29.64195 | 37000 ft | 597 kts | 300° |
| 2026-04-25 17:43 | 31.42915 | 29.56335 | 37003 ft | 597 kts | 300° |
| 2026-04-25 17:44 | 31.47785 | 29.48458 | 36999 ft | 597 kts | 300° |
| 2026-04-25 17:44 | 31.51829 | 29.41907 | 37024 ft | 597 kts | 300° |
| 2026-04-25 17:45 | 31.55865 | 29.35365 | 37000 ft | 594 kts | 300° |
| 2026-04-25 17:45 | 31.62321 | 29.24879 | 37000 ft | 596 kts | 300° |
| 2026-04-25 17:46 | 31.66379 | 29.18249 | 37000 ft | 597 kts | 300° |
| 2026-04-25 17:46 | 31.71190 | 29.10388 | 36998 ft | 598 kts | 302° |
| 2026-04-25 17:47 | 31.73954 | 29.06708 | 36999 ft | 604 kts | 314° |
| 2026-04-25 17:47 | 31.77074 | 29.03372 | 37000 ft | 606 kts | 316° |
| 2026-04-25 17:47 | 31.83538 | 28.96991 | 37000 ft | 607 kts | 319° |
| 2026-04-25 17:48 | 31.93417 | 28.87610 | 37000 ft | 608 kts | 319° |
| 2026-04-25 17:49 | 31.99930 | 28.81359 | 37000 ft | 607 kts | 319° |
| 2026-04-25 17:49 | 32.06456 | 28.75036 | 37000 ft | 607 kts | 318° |
| 2026-04-25 17:50 | 32.12974 | 28.68699 | 37000 ft | 607 kts | 318° |
| 2026-04-25 17:50 | 32.19495 | 28.62351 | 37000 ft | 607 kts | 318° |
| 2026-04-25 17:51 | 32.26028 | 28.55982 | 37000 ft | 607 kts | 318° |
| 2026-04-25 17:51 | 32.32543 | 28.49621 | 37000 ft | 607 kts | 318° |
| 2026-04-25 17:52 | 32.39050 | 28.43255 | 37000 ft | 607 kts | 318° |
| 2026-04-25 17:52 | 32.45566 | 28.36867 | 37000 ft | 607 kts | 318° |
| 2026-04-25 17:53 | 32.52026 | 28.30522 | 37000 ft | 607 kts | 318° |
| 2026-04-25 17:53 | 32.58535 | 28.24115 | 37000 ft | 607 kts | 318° |
| 2026-04-25 17:54 | 32.65034 | 28.17707 | 37000 ft | 607 kts | 318° |
| 2026-04-25 17:54 | 32.71523 | 28.11296 | 37002 ft | 607 kts | 318° |
| 2026-04-25 17:55 | 32.78013 | 28.04871 | 36999 ft | 607 kts | 318° |
| 2026-04-25 17:55 | 32.84523 | 27.98414 | 36996 ft | 607 kts | 318° |
| 2026-04-25 17:56 | 32.91010 | 27.91967 | 37000 ft | 607 kts | 318° |
| 2026-04-25 17:56 | 32.97449 | 27.85555 | 37000 ft | 607 kts | 318° |
| 2026-04-25 17:57 | 33.03923 | 27.79095 | 37000 ft | 607 kts | 317° |
| 2026-04-25 17:57 | 33.10400 | 27.72620 | 37000 ft | 607 kts | 317° |
| 2026-04-25 17:58 | 33.16876 | 27.66132 | 37000 ft | 607 kts | 317° |
| 2026-04-25 17:58 | 33.23347 | 27.59637 | 37000 ft | 607 kts | 317° |
| 2026-04-25 17:59 | 33.29805 | 27.53142 | 37000 ft | 607 kts | 317° |
| 2026-04-25 17:59 | 33.36224 | 27.46673 | 37000 ft | 607 kts | 317° |
| 2026-04-25 18:00 | 33.42678 | 27.40155 | 37001 ft | 607 kts | 317° |
| 2026-04-25 18:00 | 33.49131 | 27.33626 | 37000 ft | 607 kts | 317° |
| 2026-04-25 18:01 | 33.55581 | 27.27087 | 37000 ft | 607 kts | 317° |
| 2026-04-25 18:01 | 33.62025 | 27.20541 | 37003 ft | 607 kts | 317° |
| 2026-04-25 18:02 | 33.68467 | 27.13982 | 37000 ft | 607 kts | 317° |
| 2026-04-25 18:02 | 33.74911 | 27.07409 | 37000 ft | 607 kts | 317° |
| 2026-04-25 18:03 | 33.81340 | 27.00838 | 37000 ft | 607 kts | 317° |
| 2026-04-25 18:03 | 33.87729 | 26.94293 | 37000 ft | 607 kts | 317° |
| 2026-04-25 18:04 | 33.94166 | 26.87686 | 37000 ft | 607 kts | 317° |
| 2026-04-25 18:04 | 34.00586 | 26.81084 | 37000 ft | 607 kts | 317° |
| 2026-04-25 18:05 | 34.07199 | 26.74722 | 37000 ft | 608 kts | 321° |
| 2026-04-25 18:05 | 34.13966 | 26.68594 | 36998 ft | 608 kts | 322° |
| 2026-04-25 18:06 | 34.20725 | 26.62428 | 37000 ft | 608 kts | 321° |
| 2026-04-25 18:06 | 34.27406 | 26.56227 | 37000 ft | 608 kts | 321° |
| 2026-04-25 18:07 | 34.34096 | 26.49964 | 37000 ft | 608 kts | 320° |
| 2026-04-25 18:07 | 34.40783 | 26.43691 | 37000 ft | 608 kts | 320° |
| 2026-04-25 18:08 | 34.47474 | 26.37408 | 37014 ft | 608 kts | 320° |
| 2026-04-25 18:08 | 34.54170 | 26.31111 | 37083 ft | 608 kts | 320° |
| 2026-04-25 18:09 | 34.60856 | 26.24810 | 37148 ft | 609 kts | 320° |
| 2026-04-25 18:09 | 34.67503 | 26.18533 | 37209 ft | 609 kts | 320° |
| 2026-04-25 18:10 | 34.74206 | 26.12189 | 37265 ft | 609 kts | 320° |
| 2026-04-25 18:10 | 34.80892 | 26.05848 | 37318 ft | 609 kts | 320° |
| 2026-04-25 18:11 | 34.87574 | 25.99497 | 37385 ft | 609 kts | 320° |
| 2026-04-25 18:11 | 34.94261 | 25.93129 | 37416 ft | 610 kts | 320° |
| 2026-04-25 18:12 | 35.00953 | 25.86742 | 37465 ft | 610 kts | 320° |
| 2026-04-25 18:12 | 35.07567 | 25.80425 | 37783 ft | 604 kts | 320° |
| 2026-04-25 18:12 | 35.10887 | 25.77245 | 37657 ft | 608 kts | 320° |
| 2026-04-25 18:13 | 35.14214 | 25.74040 | 37520 ft | 611 kts | 320° |
| 2026-04-25 18:13 | 35.17560 | 25.70806 | 37378 ft | 613 kts | 320° |
| 2026-04-25 18:13 | 35.20904 | 25.67573 | 37058 ft | 611 kts | 319° |
| 2026-04-25 18:14 | 35.30859 | 25.57981 | 36996 ft | 604 kts | 319° |
| 2026-04-25 18:14 | 35.37465 | 25.51592 | 36998 ft | 606 kts | 320° |
| 2026-04-25 18:15 | 35.44052 | 25.45220 | 37000 ft | 608 kts | 320° |
| 2026-04-25 18:15 | 35.50693 | 25.38784 | 37000 ft | 608 kts | 320° |
| 2026-04-25 18:16 | 35.57328 | 25.32338 | 37000 ft | 608 kts | 320° |
| 2026-04-25 18:17 | 35.67280 | 25.22642 | 37001 ft | 608 kts | 320° |
| 2026-04-25 18:17 | 35.73901 | 25.16172 | 37000 ft | 608 kts | 320° |
| 2026-04-25 18:18 | 35.80515 | 25.09696 | 37000 ft | 608 kts | 320° |
| 2026-04-25 18:18 | 35.87089 | 25.03245 | 37000 ft | 608 kts | 319° |
| 2026-04-25 18:19 | 35.93704 | 24.96739 | 37000 ft | 608 kts | 319° |
| 2026-04-25 18:19 | 36.00316 | 24.90222 | 37000 ft | 608 kts | 319° |
| 2026-04-25 18:20 | 36.06921 | 24.83698 | 37000 ft | 608 kts | 319° |
| 2026-04-25 18:20 | 36.13520 | 24.77163 | 37000 ft | 608 kts | 319° |
| 2026-04-25 18:21 | 36.20117 | 24.70612 | 37000 ft | 608 kts | 319° |
| 2026-04-25 18:21 | 36.26707 | 24.64054 | 37000 ft | 608 kts | 319° |
| 2026-04-25 18:22 | 36.33294 | 24.57485 | 37000 ft | 608 kts | 319° |
| 2026-04-25 18:22 | 36.39875 | 24.50907 | 37000 ft | 607 kts | 319° |
| 2026-04-25 18:23 | 36.46458 | 24.44314 | 36998 ft | 607 kts | 319° |
| 2026-04-25 18:23 | 36.53043 | 24.37711 | 37000 ft | 608 kts | 319° |
| 2026-04-25 18:24 | 36.59570 | 24.31139 | 37000 ft | 607 kts | 319° |
| 2026-04-25 18:24 | 36.66139 | 24.24511 | 37004 ft | 607 kts | 319° |
| 2026-04-25 18:25 | 36.72711 | 24.17866 | 37000 ft | 607 kts | 319° |
| 2026-04-25 18:25 | 36.79285 | 24.11207 | 37000 ft | 607 kts | 319° |
| 2026-04-25 18:26 | 36.85842 | 24.04550 | 37000 ft | 607 kts | 319° |
| 2026-04-25 18:26 | 36.92356 | 23.97921 | 37000 ft | 607 kts | 319° |
| 2026-04-25 18:27 | 36.98922 | 23.91235 | 37000 ft | 607 kts | 319° |
| 2026-04-25 18:27 | 37.05484 | 23.84533 | 37000 ft | 607 kts | 319° |
| 2026-04-25 18:28 | 37.12023 | 23.77839 | 37000 ft | 607 kts | 319° |
| 2026-04-25 18:28 | 37.18519 | 23.71175 | 37000 ft | 607 kts | 319° |
| 2026-04-25 18:29 | 37.28322 | 23.61090 | 37000 ft | 607 kts | 319° |
| 2026-04-25 18:30 | 37.41371 | 23.47611 | 37000 ft | 607 kts | 318° |
| 2026-04-25 18:30 | 37.47886 | 23.40867 | 36998 ft | 604 kts | 317° |
| 2026-04-25 18:31 | 37.54364 | 23.34135 | 36999 ft | 605 kts | 318° |
| 2026-04-25 18:31 | 37.59759 | 23.28511 | 37000 ft | 607 kts | 318° |
| 2026-04-25 18:32 | 37.66279 | 23.21704 | 37000 ft | 608 kts | 318° |
| 2026-04-25 18:32 | 37.73853 | 23.13783 | 36999 ft | 607 kts | 318° |
| 2026-04-25 18:33 | 37.79303 | 23.08073 | 36998 ft | 606 kts | 317° |
| 2026-04-25 18:33 | 37.85769 | 23.01280 | 37001 ft | 604 kts | 318° |
| 2026-04-25 18:34 | 37.92201 | 22.94499 | 36999 ft | 606 kts | 317° |
| 2026-04-25 18:34 | 37.98704 | 22.87652 | 36999 ft | 607 kts | 318° |
| 2026-04-25 18:35 | 38.05208 | 22.80811 | 37000 ft | 607 kts | 318° |
| 2026-04-25 18:35 | 38.11717 | 22.73948 | 37000 ft | 607 kts | 318° |
| 2026-04-25 18:36 | 38.18213 | 22.67079 | 37000 ft | 607 kts | 318° |
| 2026-04-25 18:36 | 38.24700 | 22.60201 | 37000 ft | 607 kts | 318° |
| 2026-04-25 18:37 | 38.31145 | 22.53352 | 36998 ft | 607 kts | 318° |
| 2026-04-25 18:37 | 38.37624 | 22.46448 | 37000 ft | 607 kts | 318° |
| 2026-04-25 18:38 | 38.44094 | 22.39538 | 37002 ft | 607 kts | 317° |
| 2026-04-25 18:38 | 38.50555 | 22.32633 | 37007 ft | 603 kts | 315° |
| 2026-04-25 18:39 | 38.56915 | 22.25814 | 36987 ft | 591 kts | 314° |
| 2026-04-25 18:39 | 38.63183 | 22.19058 | 36998 ft | 587 kts | 316° |
| 2026-04-25 18:40 | 38.69403 | 22.12365 | 36974 ft | 586 kts | 314° |
| 2026-04-25 18:40 | 38.75624 | 22.05638 | 37006 ft | 585 kts | 314° |
| 2026-04-25 18:41 | 38.81830 | 21.98891 | 36994 ft | 585 kts | 315° |
| 2026-04-25 18:41 | 38.88040 | 21.92138 | 37013 ft | 584 kts | 314° |
| 2026-04-25 18:42 | 38.93186 | 21.86535 | 36997 ft | 584 kts | 314° |
| 2026-04-25 18:42 | 39.00411 | 21.78669 | 37001 ft | 584 kts | 315° |
| 2026-04-25 18:43 | 39.06604 | 21.71906 | 36993 ft | 584 kts | 314° |
| 2026-04-25 18:43 | 39.12811 | 21.65117 | 36981 ft | 585 kts | 315° |
| 2026-04-25 18:44 | 39.19014 | 21.58296 | 36996 ft | 588 kts | 314° |
| 2026-04-25 18:44 | 39.25240 | 21.51429 | 36997 ft | 588 kts | 314° |
| 2026-04-25 18:45 | 39.31462 | 21.44543 | 37007 ft | 589 kts | 315° |
| 2026-04-25 18:45 | 39.37706 | 21.37630 | 37000 ft | 592 kts | 315° |
| 2026-04-25 18:46 | 39.43966 | 21.30692 | 36988 ft | 591 kts | 314° |
| 2026-04-25 18:46 | 39.50217 | 21.23748 | 36983 ft | 592 kts | 314° |
| 2026-04-25 18:47 | 39.56413 | 21.16852 | 36991 ft | 586 kts | 314° |
| 2026-04-25 18:47 | 39.62597 | 21.09918 | 36999 ft | 589 kts | 314° |
| 2026-04-25 18:48 | 39.68795 | 21.02965 | 37003 ft | 588 kts | 315° |
| 2026-04-25 18:48 | 39.74987 | 20.96002 | 37003 ft | 590 kts | 315° |
| 2026-04-25 18:49 | 39.81222 | 20.88991 | 37000 ft | 593 kts | 315° |
| 2026-04-25 18:49 | 39.87478 | 20.81935 | 36999 ft | 596 kts | 314° |
| 2026-04-25 18:50 | 39.93733 | 20.74854 | 37001 ft | 593 kts | 313° |
| 2026-04-25 18:50 | 39.99932 | 20.67826 | 37000 ft | 591 kts | 315° |
| 2026-04-25 18:51 | 40.05050 | 20.61989 | 37004 ft | 593 kts | 315° |
| 2026-04-25 18:51 | 40.12431 | 20.53796 | 36998 ft | 598 kts | 318° |
| 2026-04-25 18:52 | 40.18968 | 20.47013 | 36998 ft | 601 kts | 319° |
| 2026-04-25 18:52 | 40.25539 | 20.40209 | 37006 ft | 603 kts | 317° |
| 2026-04-25 18:53 | 40.32074 | 20.33351 | 37004 ft | 600 kts | 317° |
| 2026-04-25 18:53 | 40.38522 | 20.26510 | 36994 ft | 599 kts | 317° |
| 2026-04-25 18:54 | 40.48224 | 20.16184 | 36994 ft | 597 kts | 317° |
| 2026-04-25 18:55 | 40.54679 | 20.09272 | 37003 ft | 599 kts | 317° |
| 2026-04-25 18:55 | 40.61161 | 20.02323 | 37003 ft | 602 kts | 318° |
| 2026-04-25 18:56 | 40.67626 | 19.95388 | 37002 ft | 604 kts | 317° |
| 2026-04-25 18:56 | 40.74152 | 19.88364 | 36997 ft | 606 kts | 318° |
| 2026-04-25 18:57 | 40.80691 | 19.81313 | 37002 ft | 607 kts | 318° |
| 2026-04-25 18:57 | 40.87230 | 19.74247 | 37001 ft | 607 kts | 319° |
| 2026-04-25 18:58 | 40.93721 | 19.67211 | 37000 ft | 607 kts | 318° |
| 2026-04-25 18:58 | 41.03515 | 19.56556 | 37000 ft | 607 kts | 318° |
| 2026-04-25 18:59 | 41.16559 | 19.42300 | 37001 ft | 607 kts | 318° |
| 2026-04-25 19:00 | 41.26320 | 19.31581 | 37000 ft | 607 kts | 318° |
| 2026-04-25 19:01 | 41.36038 | 19.20867 | 37000 ft | 607 kts | 318° |
| 2026-04-25 19:01 | 41.42540 | 19.13675 | 37000 ft | 607 kts | 318° |
| 2026-04-25 19:02 | 41.52409 | 19.03051 | 37000 ft | 608 kts | 321° |
| 2026-04-25 19:03 | 41.60270 | 18.95156 | 37000 ft | 608 kts | 321° |
| 2026-04-25 19:03 | 41.69291 | 18.86007 | 37000 ft | 608 kts | 321° |
| 2026-04-25 19:04 | 41.79303 | 18.75683 | 36999 ft | 608 kts | 321° |
| 2026-04-25 19:05 | 41.92703 | 18.61786 | 37000 ft | 608 kts | 320° |
| 2026-04-25 19:06 | 41.99383 | 18.54829 | 36999 ft | 608 kts | 319° |
| 2026-04-25 19:06 | 42.08291 | 18.42910 | 37000 ft | 603 kts | 309° |
| 2026-04-25 19:07 | 42.16828 | 18.30459 | 37000 ft | 603 kts | 308° |
| 2026-04-25 19:08 | 42.25355 | 18.17965 | 37000 ft | 603 kts | 308° |
| 2026-04-25 19:09 | 42.34808 | 18.04130 | 37000 ft | 603 kts | 308° |
| 2026-04-25 19:10 | 42.45240 | 17.88788 | 37001 ft | 603 kts | 308° |
| 2026-04-25 19:10 | 42.50874 | 17.80465 | 36999 ft | 603 kts | 308° |
| 2026-04-25 19:11 | 42.56536 | 17.72076 | 37000 ft | 603 kts | 308° |
| 2026-04-25 19:11 | 42.62187 | 17.63680 | 37000 ft | 602 kts | 308° |
| 2026-04-25 19:12 | 42.67842 | 17.55253 | 37000 ft | 602 kts | 308° |
| 2026-04-25 19:12 | 42.73483 | 17.46823 | 37001 ft | 602 kts | 308° |
| 2026-04-25 19:13 | 42.79111 | 17.38392 | 36996 ft | 600 kts | 308° |
| 2026-04-25 19:13 | 42.84694 | 17.29997 | 37001 ft | 602 kts | 308° |
| 2026-04-25 19:14 | 42.90310 | 17.21527 | 37000 ft | 602 kts | 308° |
| 2026-04-25 19:14 | 42.95932 | 17.13027 | 37000 ft | 602 kts | 308° |
| 2026-04-25 19:15 | 43.01537 | 17.04532 | 36993 ft | 601 kts | 307° |
| 2026-04-25 19:15 | 43.07126 | 16.96031 | 37001 ft | 601 kts | 307° |
| 2026-04-25 19:16 | 43.12718 | 16.87498 | 37005 ft | 602 kts | 307° |
| 2026-04-25 19:16 | 43.18302 | 16.78956 | 37003 ft | 601 kts | 307° |
| 2026-04-25 19:17 | 43.23875 | 16.70402 | 37000 ft | 602 kts | 307° |
| 2026-04-25 19:17 | 43.29450 | 16.61828 | 36994 ft | 600 kts | 306° |
| 2026-04-25 19:18 | 43.34933 | 16.53375 | 37008 ft | 595 kts | 306° |
| 2026-04-25 19:18 | 43.40434 | 16.44846 | 37004 ft | 597 kts | 307° |
| 2026-04-25 19:19 | 43.45955 | 16.36263 | 37000 ft | 600 kts | 307° |
| 2026-04-25 19:19 | 43.50594 | 16.29041 | 36996 ft | 602 kts | 307° |
| 2026-04-25 19:20 | 43.56072 | 16.20344 | 36995 ft | 599 kts | 305° |
| 2026-04-25 19:20 | 43.61469 | 16.11626 | 36996 ft | 595 kts | 304° |
| 2026-04-25 19:21 | 43.66812 | 16.02966 | 37001 ft | 596 kts | 305° |
| 2026-04-25 19:21 | 43.74929 | 15.89827 | 37000 ft | 599 kts | 306° |
| 2026-04-25 19:22 | 43.80347 | 15.81040 | 37000 ft | 600 kts | 306° |
| 2026-04-25 19:23 | 43.88435 | 15.67868 | 36997 ft | 599 kts | 305° |
| 2026-04-25 19:23 | 43.96525 | 15.54628 | 36998 ft | 599 kts | 305° |
| 2026-04-25 19:24 | 44.01906 | 15.45784 | 37001 ft | 600 kts | 305° |
| 2026-04-25 19:25 | 44.12634 | 15.28078 | 37000 ft | 600 kts | 305° |
| 2026-04-25 19:25 | 44.18008 | 15.19165 | 37000 ft | 600 kts | 305° |
| 2026-04-25 19:26 | 44.23368 | 15.10247 | 37001 ft | 600 kts | 305° |
| 2026-04-25 19:26 | 44.28689 | 15.01369 | 37000 ft | 600 kts | 305° |
| 2026-04-25 19:27 | 44.33172 | 14.93865 | 37000 ft | 600 kts | 305° |
| 2026-04-25 19:27 | 44.39387 | 14.83433 | 37000 ft | 600 kts | 305° |
| 2026-04-25 19:28 | 44.44724 | 14.74443 | 37000 ft | 600 kts | 304° |
| 2026-04-25 19:28 | 44.50056 | 14.65433 | 37000 ft | 600 kts | 304° |
| 2026-04-25 19:29 | 44.55375 | 14.56418 | 37000 ft | 600 kts | 304° |
| 2026-04-25 19:29 | 44.60691 | 14.47377 | 37000 ft | 600 kts | 304° |
| 2026-04-25 19:30 | 44.65993 | 14.38333 | 37002 ft | 600 kts | 304° |
| 2026-04-25 19:30 | 44.71250 | 14.29340 | 37003 ft | 598 kts | 304° |
| 2026-04-25 19:31 | 44.76531 | 14.20270 | 37000 ft | 600 kts | 304° |
| 2026-04-25 19:31 | 44.81817 | 14.11165 | 37000 ft | 600 kts | 304° |
| 2026-04-25 19:32 | 44.87097 | 14.02044 | 37000 ft | 600 kts | 304° |
| 2026-04-25 19:32 | 44.91476 | 13.94458 | 36998 ft | 599 kts | 304° |
| 2026-04-25 19:33 | 44.97576 | 13.83857 | 37000 ft | 598 kts | 303° |
| 2026-04-25 19:33 | 45.02807 | 13.74727 | 37000 ft | 598 kts | 304° |
| 2026-04-25 19:34 | 45.08049 | 13.65549 | 37000 ft | 599 kts | 304° |
| 2026-04-25 19:34 | 45.13280 | 13.56364 | 37000 ft | 599 kts | 303° |
| 2026-04-25 19:35 | 45.18504 | 13.47165 | 37000 ft | 599 kts | 303° |
| 2026-04-25 19:35 | 45.23730 | 13.37930 | 37001 ft | 599 kts | 303° |
| 2026-04-25 19:36 | 45.28939 | 13.28696 | 37000 ft | 599 kts | 303° |
| 2026-04-25 19:36 | 45.34020 | 13.19409 | 37000 ft | 596 kts | 299° |
| 2026-04-25 19:37 | 45.38600 | 13.09624 | 37000 ft | 593 kts | 296° |
| 2026-04-25 19:37 | 45.43051 | 12.99733 | 37000 ft | 593 kts | 296° |
| 2026-04-25 19:38 | 45.47570 | 12.89905 | 37000 ft | 594 kts | 297° |
| 2026-04-25 19:38 | 45.52151 | 12.80096 | 37047 ft | 595 kts | 297° |
| 2026-04-25 19:39 | 45.56715 | 12.70335 | 37143 ft | 595 kts | 297° |
| 2026-04-25 19:39 | 45.61303 | 12.60477 | 37231 ft | 596 kts | 297° |
| 2026-04-25 19:40 | 45.65875 | 12.50605 | 37333 ft | 596 kts | 297° |
| 2026-04-25 19:40 | 45.70445 | 12.40696 | 37420 ft | 597 kts | 297° |
| 2026-04-25 19:41 | 45.75012 | 12.30760 | 37516 ft | 597 kts | 297° |
| 2026-04-25 19:41 | 45.78031 | 12.24174 | 37582 ft | 597 kts | 297° |
| 2026-04-25 19:42 | 45.84089 | 12.10914 | 37797 ft | 595 kts | 297° |
| 2026-04-25 19:42 | 45.88631 | 12.00925 | 37824 ft | 596 kts | 296° |
| 2026-04-25 19:43 | 45.90895 | 11.95939 | 37942 ft | 595 kts | 296° |
| 2026-04-25 19:43 | 45.93118 | 11.91030 | 38003 ft | 595 kts | 296° |
| 2026-04-25 19:43 | 45.95288 | 11.86201 | 38427 ft | 542 kts | 301° |
| 2026-04-25 19:43 | 45.95650 | 11.85350 | 39022 ft | 453 kts | 299° |
| 2026-04-25 19:44 | 45.97137 | 11.81773 | 42628 ft | 408 kts | 300° |
| 2026-04-25 19:44 | 45.98601 | 11.78254 | 41233 ft | 432 kts | 300° |
| 2026-04-25 19:44 | 46.00259 | 11.74409 | 38887 ft | 472 kts | 302° |
| 2026-04-25 19:44 | 46.02110 | 11.70458 | 37797 ft | 474 kts | 303° |
| 2026-04-25 19:45 | 46.03953 | 11.66581 | 37237 ft | 465 kts | 303° |
| 2026-04-25 19:45 | 46.05744 | 11.62774 | 37019 ft | 453 kts | 303° |
| 2026-04-25 19:45 | 46.09198 | 11.55240 | 36972 ft | 451 kts | 302° |
| 2026-04-25 19:46 | 46.12603 | 11.47637 | 37170 ft | 449 kts | 302° |
| 2026-04-25 19:46 | 46.14281 | 11.43863 | 37342 ft | 447 kts | 302° |
| 2026-04-25 19:46 | 46.15937 | 11.40132 | 37423 ft | 446 kts | 302° |
| 2026-04-25 19:47 | 46.19282 | 11.32580 | 37537 ft | 447 kts | 302° |
| 2026-04-25 19:47 | 46.22623 | 11.25027 | 37691 ft | 446 kts | 302° |
| 2026-04-25 19:48 | 46.24294 | 11.21243 | 37828 ft | 447 kts | 302° |
| 2026-04-25 19:48 | 46.25974 | 11.17433 | 37770 ft | 449 kts | 302° |
| 2026-04-25 19:48 | 46.29324 | 11.09825 | 37865 ft | 448 kts | 302° |
| 2026-04-25 19:49 | 46.31562 | 11.04729 | 37937 ft | 448 kts | 302° |
| 2026-04-25 19:49 | 46.36010 | 10.94568 | 37994 ft | 449 kts | 302° |
| 2026-04-25 19:50 | 46.40992 | 10.83133 | 37833 ft | 450 kts | 302° |
| 2026-04-25 19:51 | 46.44330 | 10.75462 | 37914 ft | 451 kts | 302° |
| 2026-04-25 19:51 | 46.46008 | 10.71597 | 37780 ft | 454 kts | 302° |
| 2026-04-25 19:51 | 46.47696 | 10.67702 | 37773 ft | 456 kts | 302° |
| 2026-04-25 19:52 | 46.51072 | 10.59896 | 37836 ft | 457 kts | 302° |
| 2026-04-25 19:52 | 46.54446 | 10.52072 | 37924 ft | 457 kts | 302° |
| 2026-04-25 19:53 | 46.57522 | 10.44073 | 38063 ft | 455 kts | 297° |
| 2026-04-25 19:53 | 46.60354 | 10.35820 | 38094 ft | 456 kts | 296° |
| 2026-04-25 19:54 | 46.63139 | 10.27528 | 38121 ft | 456 kts | 296° |
| 2026-04-25 19:54 | 46.65922 | 10.19212 | 38144 ft | 456 kts | 296° |
| 2026-04-25 19:55 | 46.68703 | 10.10897 | 38156 ft | 456 kts | 296° |
| 2026-04-25 19:55 | 46.71483 | 10.02570 | 38159 ft | 457 kts | 296° |
| 2026-04-25 19:56 | 46.74238 | 9.94297 | 38154 ft | 456 kts | 296° |
| 2026-04-25 19:56 | 46.77001 | 9.85968 | 38150 ft | 456 kts | 296° |
| 2026-04-25 19:57 | 46.79759 | 9.77628 | 38142 ft | 456 kts | 296° |
| 2026-04-25 19:57 | 46.82513 | 9.69279 | 38129 ft | 455 kts | 296° |
| 2026-04-25 19:58 | 46.85252 | 9.60946 | 38117 ft | 455 kts | 296° |
| 2026-04-25 19:58 | 46.87968 | 9.52655 | 38115 ft | 455 kts | 296° |
| 2026-04-25 19:59 | 46.90700 | 9.44281 | 38115 ft | 456 kts | 296° |
| 2026-04-25 19:59 | 46.93425 | 9.35913 | 38112 ft | 456 kts | 296° |
| 2026-04-25 20:00 | 46.96148 | 9.27520 | 38112 ft | 456 kts | 296° |
| 2026-04-25 20:00 | 46.98841 | 9.19192 | 38125 ft | 455 kts | 296° |
| 2026-04-25 20:01 | 47.02901 | 9.06580 | 38123 ft | 456 kts | 296° |
| 2026-04-25 20:01 | 47.05601 | 8.98159 | 38122 ft | 455 kts | 296° |
| 2026-04-25 20:02 | 47.08292 | 8.89744 | 38117 ft | 455 kts | 296° |
| 2026-04-25 20:02 | 47.10975 | 8.81325 | 38119 ft | 455 kts | 295° |
| 2026-04-25 20:03 | 47.13650 | 8.72898 | 38125 ft | 455 kts | 295° |
| 2026-04-25 20:03 | 47.16324 | 8.64451 | 38127 ft | 456 kts | 295° |
| 2026-04-25 20:04 | 47.18978 | 8.56038 | 38126 ft | 457 kts | 295° |
| 2026-04-25 20:04 | 47.21645 | 8.47555 | 38127 ft | 457 kts | 295° |
| 2026-04-25 20:05 | 47.24308 | 8.39058 | 38118 ft | 457 kts | 295° |
| 2026-04-25 20:05 | 47.26960 | 8.30564 | 38119 ft | 457 kts | 295° |
| 2026-04-25 20:06 | 47.29612 | 8.22045 | 38122 ft | 457 kts | 295° |
| 2026-04-25 20:06 | 47.32259 | 8.13508 | 38125 ft | 457 kts | 295° |
| 2026-04-25 20:07 | 47.34895 | 8.04982 | 38123 ft | 457 kts | 295° |
| 2026-04-25 20:07 | 47.37082 | 7.97884 | 38128 ft | 457 kts | 295° |
| 2026-04-25 20:08 | 47.40137 | 7.87936 | 38126 ft | 457 kts | 295° |
| 2026-04-25 20:08 | 47.42334 | 7.80758 | 38126 ft | 457 kts | 295° |
| 2026-04-25 20:09 | 47.44932 | 7.72243 | 38128 ft | 457 kts | 295° |
| 2026-04-25 20:09 | 47.48035 | 7.64050 | 38133 ft | 457 kts | 305° |
| 2026-04-25 20:10 | 47.51798 | 7.56471 | 38131 ft | 457 kts | 307° |
| 2026-04-25 20:10 | 47.55676 | 7.48995 | 38145 ft | 458 kts | 307° |
| 2026-04-25 20:11 | 47.59558 | 7.41507 | 38126 ft | 458 kts | 307° |
| 2026-04-25 20:11 | 47.63425 | 7.33984 | 38127 ft | 459 kts | 307° |
| 2026-04-25 20:12 | 47.67282 | 7.26434 | 38128 ft | 458 kts | 307° |
| 2026-04-25 20:12 | 47.70479 | 7.20156 | 38132 ft | 458 kts | 307° |
| 2026-04-25 20:13 | 47.74939 | 7.11377 | 38132 ft | 459 kts | 306° |
| 2026-04-25 20:13 | 47.78783 | 7.03788 | 38140 ft | 459 kts | 306° |
| 2026-04-25 20:14 | 47.82621 | 6.96191 | 38140 ft | 459 kts | 306° |
| 2026-04-25 20:14 | 47.86446 | 6.88598 | 38153 ft | 458 kts | 306° |
| 2026-04-25 20:15 | 47.90253 | 6.81020 | 38150 ft | 458 kts | 306° |
| 2026-04-25 20:15 | 47.94086 | 6.73371 | 38151 ft | 459 kts | 306° |
| 2026-04-25 20:16 | 47.97904 | 6.65728 | 38151 ft | 460 kts | 306° |
| 2026-04-25 20:16 | 48.01703 | 6.58102 | 38149 ft | 460 kts | 306° |
| 2026-04-25 20:17 | 48.05515 | 6.50427 | 38150 ft | 460 kts | 305° |
| 2026-04-25 20:17 | 48.09320 | 6.42748 | 38148 ft | 458 kts | 305° |
| 2026-04-25 20:18 | 48.13116 | 6.35065 | 38151 ft | 459 kts | 305° |
| 2026-04-25 20:18 | 48.16912 | 6.27357 | 38152 ft | 461 kts | 305° |
| 2026-04-25 20:19 | 48.20712 | 6.19621 | 38155 ft | 461 kts | 305° |
| 2026-04-25 20:19 | 48.24503 | 6.11881 | 38156 ft | 461 kts | 305° |
| 2026-04-25 20:20 | 48.28299 | 6.04108 | 38167 ft | 461 kts | 305° |
| 2026-04-25 20:20 | 48.32086 | 5.96333 | 38158 ft | 461 kts | 304° |
| 2026-04-25 20:21 | 48.35876 | 5.88528 | 38156 ft | 462 kts | 304° |
| 2026-04-25 20:21 | 48.39642 | 5.80751 | 38158 ft | 463 kts | 304° |
| 2026-04-25 20:22 | 48.42811 | 5.74187 | 38157 ft | 462 kts | 304° |
| 2026-04-25 20:22 | 48.47205 | 5.65064 | 38158 ft | 462 kts | 304° |
| 2026-04-25 20:23 | 48.50978 | 5.57205 | 38164 ft | 463 kts | 304° |
| 2026-04-25 20:23 | 48.54753 | 5.49316 | 38164 ft | 464 kts | 304° |
| 2026-04-25 20:24 | 48.58528 | 5.41405 | 38164 ft | 464 kts | 304° |
| 2026-04-25 20:24 | 48.62295 | 5.33488 | 38165 ft | 464 kts | 304° |
| 2026-04-25 20:25 | 48.66051 | 5.25570 | 38162 ft | 464 kts | 304° |
| 2026-04-25 20:25 | 48.69811 | 5.17622 | 38169 ft | 464 kts | 303° |
| 2026-04-25 20:26 | 48.73566 | 5.09661 | 38168 ft | 465 kts | 303° |
| 2026-04-25 20:26 | 48.77294 | 5.01733 | 38170 ft | 465 kts | 303° |
| 2026-04-25 20:27 | 48.81044 | 4.93740 | 38170 ft | 465 kts | 303° |
| 2026-04-25 20:27 | 48.84786 | 4.85740 | 38173 ft | 465 kts | 303° |
| 2026-04-25 20:28 | 48.88521 | 4.77719 | 38173 ft | 465 kts | 303° |
| 2026-04-25 20:28 | 48.92251 | 4.69685 | 38173 ft | 465 kts | 303° |
| 2026-04-25 20:29 | 48.95976 | 4.61642 | 38174 ft | 465 kts | 303° |
| 2026-04-25 20:29 | 48.99701 | 4.53575 | 38184 ft | 465 kts | 303° |
| 2026-04-25 20:30 | 49.03390 | 4.45565 | 38180 ft | 465 kts | 303° |
| 2026-04-25 20:30 | 49.07094 | 4.37496 | 38182 ft | 465 kts | 303° |
| 2026-04-25 20:31 | 49.10793 | 4.29414 | 38184 ft | 464 kts | 303° |
| 2026-04-25 20:31 | 49.14489 | 4.21316 | 38184 ft | 464 kts | 303° |
| 2026-04-25 20:32 | 49.18177 | 4.13207 | 38184 ft | 464 kts | 303° |
| 2026-04-25 20:32 | 49.21868 | 4.05070 | 38184 ft | 464 kts | 303° |
| 2026-04-25 20:33 | 49.25544 | 3.96939 | 38189 ft | 464 kts | 303° |
| 2026-04-25 20:33 | 49.28597 | 3.90170 | 38192 ft | 464 kts | 303° |
| 2026-04-25 20:34 | 49.32853 | 3.80702 | 38194 ft | 464 kts | 302° |
| 2026-04-25 20:34 | 49.36506 | 3.72550 | 38195 ft | 464 kts | 302° |
| 2026-04-25 20:35 | 49.40158 | 3.64375 | 38195 ft | 464 kts | 302° |
| 2026-04-25 20:35 | 49.43800 | 3.56194 | 38195 ft | 464 kts | 302° |
| 2026-04-25 20:36 | 49.47436 | 3.48005 | 38203 ft | 463 kts | 302° |
| 2026-04-25 20:36 | 49.51042 | 3.39858 | 38194 ft | 463 kts | 302° |
| 2026-04-25 20:37 | 49.54657 | 3.31666 | 38195 ft | 462 kts | 302° |
| 2026-04-25 20:37 | 49.58273 | 3.23447 | 38195 ft | 462 kts | 302° |
| 2026-04-25 20:38 | 49.61897 | 3.15184 | 38195 ft | 462 kts | 302° |
| 2026-04-25 20:38 | 49.65457 | 3.07036 | 38195 ft | 463 kts | 302° |
| 2026-04-25 20:39 | 49.69059 | 2.98773 | 38198 ft | 463 kts | 302° |
| 2026-04-25 20:39 | 49.71463 | 2.93243 | 38207 ft | 463 kts | 302° |
| 2026-04-25 20:40 | 49.76243 | 2.82211 | 38185 ft | 464 kts | 302° |
| 2026-04-25 20:40 | 49.79832 | 2.73899 | 38208 ft | 464 kts | 302° |
| 2026-04-25 20:41 | 49.83409 | 2.65586 | 38197 ft | 464 kts | 303° |
| 2026-04-25 20:41 | 49.86957 | 2.57318 | 38195 ft | 464 kts | 302° |
| 2026-04-25 20:42 | 49.90528 | 2.48970 | 38219 ft | 464 kts | 302° |
| 2026-04-25 20:42 | 49.94090 | 2.40616 | 38200 ft | 464 kts | 302° |
| 2026-04-25 20:43 | 49.97646 | 2.32249 | 38214 ft | 464 kts | 302° |
| 2026-04-25 20:43 | 50.01204 | 2.23857 | 38210 ft | 464 kts | 302° |
| 2026-04-25 20:44 | 50.04751 | 2.15454 | 38214 ft | 465 kts | 302° |
| 2026-04-25 20:44 | 50.08269 | 2.07090 | 38214 ft | 465 kts | 302° |
| 2026-04-25 20:45 | 50.11808 | 1.98652 | 38216 ft | 465 kts | 302° |
| 2026-04-25 20:45 | 50.15349 | 1.90186 | 38237 ft | 465 kts | 302° |
| 2026-04-25 20:46 | 50.19467 | 1.82402 | 38221 ft | 466 kts | 313° |
| 2026-04-25 20:46 | 50.24049 | 1.75248 | 38231 ft | 466 kts | 314° |
| 2026-04-25 20:47 | 50.28715 | 1.68183 | 38232 ft | 466 kts | 315° |
| 2026-04-25 20:47 | 50.33371 | 1.61112 | 38233 ft | 466 kts | 314° |
| 2026-04-25 20:48 | 50.37983 | 1.54052 | 38237 ft | 466 kts | 314° |